sensor_id;sensor_type;location;lat;lon;timestamp;P1;durP1;ratioP1;P2;durP2;ratioP2
2996;SDS011;1508;48.744;9.110;2022-07-22T00:02:31;10.40;;;9.43;;
2996;SDS011;1508;48.744;9.110;2022-07-22T00:05:17;9.37;;;8.47;;
2996;SDS011;1508;48.744;9.110;2022-07-22T00:08:02;10.73;;;8.10;;
2996;SDS011;1508;48.744;9.110;2022-07-22T00:10:49;12.05;;;9.50;;
2996;SDS011;1508;48.744;9.110;2022-07-22T00:13:34;10.88;;;9.20;;
2996;SDS011;1508;48.744;9.110;2022-07-22T00:16:20;10.82;;;8.73;;
2996;SDS011;1508;48.744;9.110;2022-07-22T00:19:06;9.45;;;8.43;;
2996;SDS011;1508;48.744;9.110;2022-07-22T00:21:52;11.52;;;9.02;;
2996;SDS011;1508;48.744;9.110;2022-07-22T00:24:38;11.40;;;9.23;;
2996;SDS011;1508;48.744;9.110;2022-07-22T00:27:24;11.50;;;9.30;;
2996;SDS011;1508;48.744;9.110;2022-07-22T00:30:11;10.93;;;9.13;;
2996;SDS011;1508;48.744;9.110;2022-07-22T00:32:57;10.38;;;8.82;;
2996;SDS011;1508;48.744;9.110;2022-07-22T00:35:43;9.07;;;8.18;;
2996;SDS011;1508;48.744;9.110;2022-07-22T00:38:28;9.55;;;8.20;;
2996;SDS011;1508;48.744;9.110;2022-07-22T00:41:14;12.77;;;9.32;;
2996;SDS011;1508;48.744;9.110;2022-07-22T00:44:02;9.35;;;8.30;;
2996;SDS011;1508;48.744;9.110;2022-07-22T00:46:49;10.10;;;9.10;;
2996;SDS011;1508;48.744;9.110;2022-07-22T00:49:35;9.45;;;8.55;;
2996;SDS011;1508;48.744;9.110;2022-07-22T00:52:21;10.10;;;9.10;;
2996;SDS011;1508;48.744;9.110;2022-07-22T00:55:07;9.90;;;8.90;;
2996;SDS011;1508;48.744;9.110;2022-07-22T00:57:54;10.10;;;8.95;;
2996;SDS011;1508;48.744;9.110;2022-07-22T01:00:40;12.07;;;9.63;;
2996;SDS011;1508;48.744;9.110;2022-07-22T01:03:25;9.68;;;8.38;;
2996;SDS011;1508;48.744;9.110;2022-07-22T01:06:11;9.95;;;8.85;;
2996;SDS011;1508;48.744;9.110;2022-07-22T01:08:57;11.00;;;8.95;;
2996;SDS011;1508;48.744;9.110;2022-07-22T01:11:43;10.23;;;8.90;;
2996;SDS011;1508;48.744;9.110;2022-07-22T01:14:29;10.25;;;9.25;;
2996;SDS011;1508;48.744;9.110;2022-07-22T01:17:16;9.32;;;8.48;;
2996;SDS011;1508;48.744;9.110;2022-07-22T01:20:05;9.93;;;8.93;;
2996;SDS011;1508;48.744;9.110;2022-07-22T01:22:52;9.82;;;8.80;;
2996;SDS011;1508;48.744;9.110;2022-07-22T01:25:38;10.18;;;9.18;;
2996;SDS011;1508;48.744;9.110;2022-07-22T01:28:24;10.57;;;9.05;;
2996;SDS011;1508;48.744;9.110;2022-07-22T01:31:10;10.13;;;9.13;;
2996;SDS011;1508;48.744;9.110;2022-07-22T01:33:56;10.73;;;9.02;;
2996;SDS011;1508;48.744;9.110;2022-07-22T01:36:42;10.60;;;8.67;;
2996;SDS011;1508;48.744;9.110;2022-07-22T01:39:28;10.57;;;9.00;;
2996;SDS011;1508;48.744;9.110;2022-07-22T01:42:14;10.50;;;8.95;;
2996;SDS011;1508;48.744;9.110;2022-07-22T01:45:00;10.85;;;9.70;;
2996;SDS011;1508;48.744;9.110;2022-07-22T01:47:46;10.43;;;9.43;;
2996;SDS011;1508;48.744;9.110;2022-07-22T01:50:32;10.70;;;9.60;;
2996;SDS011;1508;48.744;9.110;2022-07-22T01:53:18;10.73;;;9.63;;
2996;SDS011;1508;48.744;9.110;2022-07-22T01:56:04;10.20;;;9.20;;
2996;SDS011;1508;48.744;9.110;2022-07-22T01:58:50;10.37;;;9.47;;
2996;SDS011;1508;48.744;9.110;2022-07-22T02:01:36;11.30;;;10.13;;
2996;SDS011;1508;48.744;9.110;2022-07-22T02:04:22;11.00;;;9.90;;
2996;SDS011;1508;48.744;9.110;2022-07-22T02:07:07;12.13;;;9.93;;
2996;SDS011;1508;48.744;9.110;2022-07-22T02:09:53;10.90;;;9.80;;
2996;SDS011;1508;48.744;9.110;2022-07-22T02:12:39;11.07;;;9.93;;
2996;SDS011;1508;48.744;9.110;2022-07-22T02:15:25;11.63;;;10.40;;
2996;SDS011;1508;48.744;9.110;2022-07-22T02:18:12;11.52;;;9.95;;
2996;SDS011;1508;48.744;9.110;2022-07-22T02:21:00;11.13;;;9.82;;
2996;SDS011;1508;48.744;9.110;2022-07-22T02:23:45;11.45;;;10.00;;
2996;SDS011;1508;48.744;9.110;2022-07-22T02:26:32;11.15;;;10.05;;
2996;SDS011;1508;48.744;9.110;2022-07-22T02:29:18;11.50;;;10.30;;
2996;SDS011;1508;48.744;9.110;2022-07-22T02:32:04;11.13;;;10.03;;
2996;SDS011;1508;48.744;9.110;2022-07-22T02:34:50;11.98;;;10.70;;
2996;SDS011;1508;48.744;9.110;2022-07-22T02:37:36;12.52;;;11.02;;
2996;SDS011;1508;48.744;9.110;2022-07-22T02:40:22;12.48;;;11.25;;
2996;SDS011;1508;48.744;9.110;2022-07-22T02:43:08;11.50;;;10.40;;
2996;SDS011;1508;48.744;9.110;2022-07-22T02:45:54;14.45;;;11.15;;
2996;SDS011;1508;48.744;9.110;2022-07-22T02:48:40;12.10;;;11.00;;
2996;SDS011;1508;48.744;9.110;2022-07-22T02:51:26;12.15;;;10.85;;
2996;SDS011;1508;48.744;9.110;2022-07-22T02:54:12;12.25;;;11.15;;
2996;SDS011;1508;48.744;9.110;2022-07-22T02:56:57;14.25;;;11.98;;
2996;SDS011;1508;48.744;9.110;2022-07-22T02:59:43;14.43;;;12.20;;
2996;SDS011;1508;48.744;9.110;2022-07-22T03:02:29;13.10;;;11.40;;
2996;SDS011;1508;48.744;9.110;2022-07-22T03:05:15;13.70;;;11.90;;
2996;SDS011;1508;48.744;9.110;2022-07-22T03:08:01;13.02;;;11.75;;
2996;SDS011;1508;48.744;9.110;2022-07-22T03:10:47;13.88;;;12.40;;
2996;SDS011;1508;48.744;9.110;2022-07-22T03:13:32;14.10;;;12.45;;
2996;SDS011;1508;48.744;9.110;2022-07-22T03:16:18;14.40;;;12.98;;
2996;SDS011;1508;48.744;9.110;2022-07-22T03:19:05;14.68;;;12.88;;
2996;SDS011;1508;48.744;9.110;2022-07-22T03:21:50;13.10;;;11.75;;
2996;SDS011;1508;48.744;9.110;2022-07-22T03:24:36;13.35;;;11.95;;
2996;SDS011;1508;48.744;9.110;2022-07-22T03:27:22;14.95;;;13.45;;
2996;SDS011;1508;48.744;9.110;2022-07-22T03:30:08;14.75;;;13.25;;
2996;SDS011;1508;48.744;9.110;2022-07-22T03:32:54;15.48;;;13.30;;
2996;SDS011;1508;48.744;9.110;2022-07-22T03:35:40;14.50;;;12.85;;
2996;SDS011;1508;48.744;9.110;2022-07-22T03:38:26;15.20;;;13.60;;
2996;SDS011;1508;48.744;9.110;2022-07-22T03:41:12;14.68;;;13.20;;
2996;SDS011;1508;48.744;9.110;2022-07-22T03:43:57;17.77;;;14.00;;
2996;SDS011;1508;48.744;9.110;2022-07-22T03:46:43;16.90;;;14.30;;
2996;SDS011;1508;48.744;9.110;2022-07-22T03:49:30;17.23;;;13.98;;
2996;SDS011;1508;48.744;9.110;2022-07-22T03:52:16;14.98;;;13.30;;
2996;SDS011;1508;48.744;9.110;2022-07-22T03:55:03;14.55;;;13.15;;
2996;SDS011;1508;48.744;9.110;2022-07-22T03:57:50;16.42;;;14.02;;
2996;SDS011;1508;48.744;9.110;2022-07-22T04:00:36;16.20;;;13.90;;
2996;SDS011;1508;48.744;9.110;2022-07-22T04:03:22;15.00;;;13.43;;
2996;SDS011;1508;48.744;9.110;2022-07-22T04:06:07;14.90;;;13.00;;
2996;SDS011;1508;48.744;9.110;2022-07-22T04:08:53;16.00;;;14.27;;
2996;SDS011;1508;48.744;9.110;2022-07-22T04:11:39;15.83;;;14.13;;
2996;SDS011;1508;48.744;9.110;2022-07-22T04:14:25;14.97;;;13.47;;
2996;SDS011;1508;48.744;9.110;2022-07-22T04:17:11;16.17;;;13.70;;
2996;SDS011;1508;48.744;9.110;2022-07-22T04:19:57;15.47;;;13.90;;
2996;SDS011;1508;48.744;9.110;2022-07-22T04:22:42;14.90;;;13.40;;
2996;SDS011;1508;48.744;9.110;2022-07-22T04:25:28;16.70;;;13.00;;
2996;SDS011;1508;48.744;9.110;2022-07-22T04:28:14;13.83;;;12.33;;
2996;SDS011;1508;48.744;9.110;2022-07-22T04:31:01;13.57;;;12.10;;
2996;SDS011;1508;48.744;9.110;2022-07-22T04:33:47;14.50;;;12.90;;
2996;SDS011;1508;48.744;9.110;2022-07-22T04:36:33;13.63;;;11.82;;
2996;SDS011;1508;48.744;9.110;2022-07-22T04:39:19;14.25;;;11.70;;
2996;SDS011;1508;48.744;9.110;2022-07-22T04:42:05;14.52;;;13.00;;
2996;SDS011;1508;48.744;9.110;2022-07-22T04:44:51;13.00;;;11.70;;
2996;SDS011;1508;48.744;9.110;2022-07-22T04:47:37;14.63;;;12.52;;
2996;SDS011;1508;48.744;9.110;2022-07-22T04:50:23;14.70;;;13.20;;
2996;SDS011;1508;48.744;9.110;2022-07-22T04:53:09;17.40;;;13.20;;
2996;SDS011;1508;48.744;9.110;2022-07-22T04:55:55;14.55;;;12.60;;
2996;SDS011;1508;48.744;9.110;2022-07-22T04:58:40;13.20;;;11.80;;
2996;SDS011;1508;48.744;9.110;2022-07-22T05:01:26;13.55;;;12.25;;
2996;SDS011;1508;48.744;9.110;2022-07-22T05:04:12;13.82;;;12.43;;
2996;SDS011;1508;48.744;9.110;2022-07-22T05:06:58;14.10;;;12.67;;
2996;SDS011;1508;48.744;9.110;2022-07-22T05:09:44;14.70;;;13.07;;
2996;SDS011;1508;48.744;9.110;2022-07-22T05:12:30;13.00;;;11.70;;
2996;SDS011;1508;48.744;9.110;2022-07-22T05:15:16;13.80;;;12.38;;
2996;SDS011;1508;48.744;9.110;2022-07-22T05:18:02;14.73;;;13.23;;
2996;SDS011;1508;48.744;9.110;2022-07-22T05:20:48;14.70;;;13.20;;
2996;SDS011;1508;48.744;9.110;2022-07-22T05:23:34;15.00;;;12.30;;
2996;SDS011;1508;48.744;9.110;2022-07-22T05:26:19;14.50;;;12.60;;
2996;SDS011;1508;48.744;9.110;2022-07-22T05:29:05;14.02;;;12.70;;
2996;SDS011;1508;48.744;9.110;2022-07-22T05:31:51;15.07;;;12.98;;
2996;SDS011;1508;48.744;9.110;2022-07-22T05:34:37;13.60;;;12.30;;
2996;SDS011;1508;48.744;9.110;2022-07-22T05:37:23;15.80;;;12.27;;
2996;SDS011;1508;48.744;9.110;2022-07-22T05:40:09;13.95;;;12.52;;
2996;SDS011;1508;48.744;9.110;2022-07-22T05:42:55;17.23;;;12.50;;
2996;SDS011;1508;48.744;9.110;2022-07-22T05:45:41;14.23;;;12.82;;
2996;SDS011;1508;48.744;9.110;2022-07-22T05:48:27;13.23;;;11.93;;
2996;SDS011;1508;48.744;9.110;2022-07-22T05:51:13;15.73;;;13.20;;
2996;SDS011;1508;48.744;9.110;2022-07-22T05:53:59;13.87;;;12.47;;
2996;SDS011;1508;48.744;9.110;2022-07-22T05:56:45;13.40;;;11.75;;
2996;SDS011;1508;48.744;9.110;2022-07-22T05:59:31;12.40;;;11.20;;
2996;SDS011;1508;48.744;9.110;2022-07-22T06:02:17;13.07;;;11.77;;
2996;SDS011;1508;48.744;9.110;2022-07-22T06:05:02;12.73;;;11.43;;
2996;SDS011;1508;48.744;9.110;2022-07-22T06:07:48;12.63;;;11.40;;
2996;SDS011;1508;48.744;9.110;2022-07-22T06:10:34;12.55;;;11.25;;
2996;SDS011;1508;48.744;9.110;2022-07-22T06:13:20;12.87;;;11.67;;
2996;SDS011;1508;48.744;9.110;2022-07-22T06:16:06;13.67;;;12.27;;
2996;SDS011;1508;48.744;9.110;2022-07-22T06:18:52;14.20;;;12.70;;
2996;SDS011;1508;48.744;9.110;2022-07-22T06:21:38;11.87;;;10.77;;
2996;SDS011;1508;48.744;9.110;2022-07-22T06:24:24;12.80;;;11.38;;
2996;SDS011;1508;48.744;9.110;2022-07-22T06:27:10;12.77;;;11.57;;
2996;SDS011;1508;48.744;9.110;2022-07-22T06:29:56;13.73;;;11.77;;
2996;SDS011;1508;48.744;9.110;2022-07-22T06:32:42;12.80;;;11.50;;
2996;SDS011;1508;48.744;9.110;2022-07-22T06:35:27;13.50;;;11.20;;
2996;SDS011;1508;48.744;9.110;2022-07-22T06:38:13;11.68;;;9.55;;
2996;SDS011;1508;48.744;9.110;2022-07-22T06:40:59;11.10;;;10.02;;
2996;SDS011;1508;48.744;9.110;2022-07-22T06:43:45;11.00;;;9.90;;
2996;SDS011;1508;48.744;9.110;2022-07-22T06:46:31;10.50;;;9.43;;
2996;SDS011;1508;48.744;9.110;2022-07-22T06:49:17;11.52;;;10.30;;
2996;SDS011;1508;48.744;9.110;2022-07-22T06:52:03;11.70;;;10.55;;
2996;SDS011;1508;48.744;9.110;2022-07-22T06:54:49;12.70;;;10.93;;
2996;SDS011;1508;48.744;9.110;2022-07-22T06:57:34;11.27;;;10.15;;
2996;SDS011;1508;48.744;9.110;2022-07-22T07:00:20;11.77;;;9.70;;
2996;SDS011;1508;48.744;9.110;2022-07-22T07:03:06;12.23;;;11.00;;
2996;SDS011;1508;48.744;9.110;2022-07-22T07:05:52;11.77;;;10.50;;
2996;SDS011;1508;48.744;9.110;2022-07-22T07:08:38;12.65;;;10.73;;
2996;SDS011;1508;48.744;9.110;2022-07-22T07:11:25;12.52;;;11.13;;
2996;SDS011;1508;48.744;9.110;2022-07-22T07:14:10;15.17;;;12.30;;
2996;SDS011;1508;48.744;9.110;2022-07-22T07:16:56;12.70;;;11.40;;
2996;SDS011;1508;48.744;9.110;2022-07-22T07:19:42;13.38;;;11.10;;
2996;SDS011;1508;48.744;9.110;2022-07-22T07:22:28;12.88;;;11.68;;
2996;SDS011;1508;48.744;9.110;2022-07-22T07:25:14;15.10;;;12.38;;
2996;SDS011;1508;48.744;9.110;2022-07-22T07:28:00;14.15;;;12.38;;
2996;SDS011;1508;48.744;9.110;2022-07-22T07:30:46;14.45;;;12.32;;
2996;SDS011;1508;48.744;9.110;2022-07-22T07:33:33;12.55;;;11.27;;
2996;SDS011;1508;48.744;9.110;2022-07-22T07:36:19;13.23;;;11.43;;
2996;SDS011;1508;48.744;9.110;2022-07-22T07:39:05;12.35;;;11.15;;
2996;SDS011;1508;48.744;9.110;2022-07-22T07:41:51;14.35;;;12.38;;
2996;SDS011;1508;48.744;9.110;2022-07-22T07:44:37;11.65;;;10.45;;
2996;SDS011;1508;48.744;9.110;2022-07-22T07:47:23;13.20;;;11.80;;
2996;SDS011;1508;48.744;9.110;2022-07-22T07:50:09;13.17;;;11.87;;
2996;SDS011;1508;48.744;9.110;2022-07-22T07:52:55;14.18;;;11.98;;
2996;SDS011;1508;48.744;9.110;2022-07-22T07:55:41;14.25;;;11.57;;
2996;SDS011;1508;48.744;9.110;2022-07-22T07:58:27;13.77;;;11.02;;
2996;SDS011;1508;48.744;9.110;2022-07-22T08:01:13;12.50;;;11.40;;
2996;SDS011;1508;48.744;9.110;2022-07-22T08:03:59;13.05;;;11.70;;
2996;SDS011;1508;48.744;9.110;2022-07-22T08:06:45;12.77;;;11.32;;
2996;SDS011;1508;48.744;9.110;2022-07-22T08:09:30;13.50;;;12.20;;
2996;SDS011;1508;48.744;9.110;2022-07-22T08:12:16;12.52;;;11.20;;
2996;SDS011;1508;48.744;9.110;2022-07-22T08:15:02;14.30;;;11.85;;
2996;SDS011;1508;48.744;9.110;2022-07-22T08:17:48;12.30;;;11.03;;
2996;SDS011;1508;48.744;9.110;2022-07-22T08:20:34;13.32;;;11.63;;
2996;SDS011;1508;48.744;9.110;2022-07-22T08:23:20;14.10;;;12.80;;
2996;SDS011;1508;48.744;9.110;2022-07-22T08:26:06;13.75;;;12.35;;
2996;SDS011;1508;48.744;9.110;2022-07-22T08:28:52;12.57;;;11.20;;
2996;SDS011;1508;48.744;9.110;2022-07-22T08:31:38;12.25;;;11.05;;
2996;SDS011;1508;48.744;9.110;2022-07-22T08:34:24;12.35;;;10.80;;
2996;SDS011;1508;48.744;9.110;2022-07-22T08:37:10;12.50;;;11.20;;
2996;SDS011;1508;48.744;9.110;2022-07-22T08:39:56;13.30;;;11.90;;
2996;SDS011;1508;48.744;9.110;2022-07-22T08:42:42;14.00;;;11.90;;
2996;SDS011;1508;48.744;9.110;2022-07-22T08:45:31;13.40;;;12.00;;
2996;SDS011;1508;48.744;9.110;2022-07-22T08:48:17;12.40;;;11.10;;
2996;SDS011;1508;48.744;9.110;2022-07-22T08:51:03;13.40;;;12.00;;
2996;SDS011;1508;48.744;9.110;2022-07-22T08:53:49;14.60;;;11.20;;
2996;SDS011;1508;48.744;9.110;2022-07-22T08:56:35;14.70;;;12.10;;
2996;SDS011;1508;48.744;9.110;2022-07-22T08:59:21;13.23;;;11.82;;
2996;SDS011;1508;48.744;9.110;2022-07-22T09:02:07;12.45;;;10.93;;
2996;SDS011;1508;48.744;9.110;2022-07-22T09:04:58;15.83;;;12.63;;
2996;SDS011;1508;48.744;9.110;2022-07-22T09:07:46;14.43;;;12.27;;
2996;SDS011;1508;48.744;9.110;2022-07-22T09:10:33;14.68;;;13.13;;
2996;SDS011;1508;48.744;9.110;2022-07-22T09:13:19;14.65;;;12.00;;
2996;SDS011;1508;48.744;9.110;2022-07-22T09:16:05;17.40;;;13.52;;
2996;SDS011;1508;48.744;9.110;2022-07-22T09:18:53;12.52;;;11.32;;
2996;SDS011;1508;48.744;9.110;2022-07-22T09:21:43;12.25;;;10.95;;
2996;SDS011;1508;48.744;9.110;2022-07-22T09:24:31;14.65;;;10.73;;
2996;SDS011;1508;48.744;9.110;2022-07-22T09:27:25;11.82;;;10.63;;
2996;SDS011;1508;48.744;9.110;2022-07-22T09:30:16;13.45;;;12.05;;
2996;SDS011;1508;48.744;9.110;2022-07-22T09:33:04;13.85;;;12.40;;
2996;SDS011;1508;48.744;9.110;2022-07-22T09:35:51;12.02;;;10.82;;
2996;SDS011;1508;48.744;9.110;2022-07-22T09:38:37;10.93;;;9.82;;
2996;SDS011;1508;48.744;9.110;2022-07-22T09:41:23;11.98;;;10.77;;
2996;SDS011;1508;48.744;9.110;2022-07-22T09:44:21;13.98;;;10.40;;
2996;SDS011;1508;48.744;9.110;2022-07-22T09:47:26;12.85;;;10.18;;
2996;SDS011;1508;48.744;9.110;2022-07-22T09:50:14;8.70;;;7.87;;
2996;SDS011;1508;48.744;9.110;2022-07-22T09:53:00;9.23;;;8.35;;
2996;SDS011;1508;48.744;9.110;2022-07-22T09:55:46;9.10;;;8.30;;
2996;SDS011;1508;48.744;9.110;2022-07-22T09:58:32;11.52;;;9.13;;
2996;SDS011;1508;48.744;9.110;2022-07-22T10:01:18;8.80;;;8.00;;
2996;SDS011;1508;48.744;9.110;2022-07-22T10:04:05;10.30;;;9.30;;
2996;SDS011;1508;48.744;9.110;2022-07-22T10:06:52;11.80;;;9.38;;
2996;SDS011;1508;48.744;9.110;2022-07-22T10:09:39;10.55;;;9.30;;
2996;SDS011;1508;48.744;9.110;2022-07-22T10:12:29;9.77;;;8.77;;
2996;SDS011;1508;48.744;9.110;2022-07-22T10:15:17;9.50;;;8.60;;
2996;SDS011;1508;48.744;9.110;2022-07-22T10:18:07;9.27;;;8.10;;
2996;SDS011;1508;48.744;9.110;2022-07-22T10:27:01;11.30;;;9.20;;
2996;SDS011;1508;48.744;9.110;2022-07-22T10:29:46;9.77;;;8.75;;
2996;SDS011;1508;48.744;9.110;2022-07-22T10:32:33;9.77;;;8.32;;
2996;SDS011;1508;48.744;9.110;2022-07-22T10:35:20;8.95;;;7.95;;
2996;SDS011;1508;48.744;9.110;2022-07-22T10:38:07;9.45;;;7.60;;
2996;SDS011;1508;48.744;9.110;2022-07-22T10:41:12;9.23;;;8.33;;
2996;SDS011;1508;48.744;9.110;2022-07-22T10:44:15;9.57;;;7.75;;
2996;SDS011;1508;48.744;9.110;2022-07-22T10:47:51;8.67;;;7.87;;
2996;SDS011;1508;48.744;9.110;2022-07-22T10:50:40;10.60;;;7.88;;
2996;SDS011;1508;48.744;9.110;2022-07-22T10:56:33;8.45;;;7.35;;
2996;SDS011;1508;48.744;9.110;2022-07-22T10:59:20;9.88;;;7.75;;
2996;SDS011;1508;48.744;9.110;2022-07-22T11:02:06;10.23;;;9.13;;
2996;SDS011;1508;48.744;9.110;2022-07-22T11:04:52;9.43;;;8.43;;
2996;SDS011;1508;48.744;9.110;2022-07-22T11:07:45;9.10;;;8.20;;
2996;SDS011;1508;48.744;9.110;2022-07-22T11:10:31;9.70;;;7.67;;
2996;SDS011;1508;48.744;9.110;2022-07-22T11:13:33;7.90;;;7.10;;
2996;SDS011;1508;48.744;9.110;2022-07-22T11:16:21;8.27;;;7.57;;
2996;SDS011;1508;48.744;9.110;2022-07-22T11:19:08;8.15;;;7.35;;
2996;SDS011;1508;48.744;9.110;2022-07-22T11:21:55;8.15;;;7.35;;
2996;SDS011;1508;48.744;9.110;2022-07-22T11:24:47;7.70;;;7.00;;
2996;SDS011;1508;48.744;9.110;2022-07-22T11:27:34;8.50;;;7.00;;
2996;SDS011;1508;48.744;9.110;2022-07-22T11:30:20;8.13;;;7.30;;
2996;SDS011;1508;48.744;9.110;2022-07-22T11:33:06;7.78;;;7.15;;
2996;SDS011;1508;48.744;9.110;2022-07-22T11:36:06;8.73;;;7.30;;
2996;SDS011;1508;48.744;9.110;2022-07-22T11:38:52;8.17;;;7.37;;
2996;SDS011;1508;48.744;9.110;2022-07-22T11:41:39;7.70;;;6.90;;
2996;SDS011;1508;48.744;9.110;2022-07-22T11:44:27;8.00;;;7.20;;
2996;SDS011;1508;48.744;9.110;2022-07-22T11:47:14;9.95;;;6.95;;
2996;SDS011;1508;48.744;9.110;2022-07-22T11:50:00;8.00;;;7.20;;
2996;SDS011;1508;48.744;9.110;2022-07-22T11:52:52;7.40;;;6.70;;
2996;SDS011;1508;48.744;9.110;2022-07-22T11:55:38;8.10;;;7.40;;
2996;SDS011;1508;48.744;9.110;2022-07-22T11:58:41;11.02;;;7.75;;
2996;SDS011;1508;48.744;9.110;2022-07-22T12:01:34;9.05;;;7.60;;
2996;SDS011;1508;48.744;9.110;2022-07-22T12:04:22;8.25;;;7.45;;
2996;SDS011;1508;48.744;9.110;2022-07-22T12:07:10;8.07;;;7.28;;
2996;SDS011;1508;48.744;9.110;2022-07-22T12:09:56;9.32;;;7.07;;
2996;SDS011;1508;48.744;9.110;2022-07-22T12:12:42;7.80;;;6.93;;
2996;SDS011;1508;48.744;9.110;2022-07-22T12:15:31;7.10;;;6.40;;
2996;SDS011;1508;48.744;9.110;2022-07-22T12:18:18;7.68;;;6.97;;
2996;SDS011;1508;48.744;9.110;2022-07-22T12:21:05;7.40;;;6.60;;
2996;SDS011;1508;48.744;9.110;2022-07-22T12:23:53;8.82;;;7.32;;
2996;SDS011;1508;48.744;9.110;2022-07-22T12:26:47;7.47;;;6.78;;
2996;SDS011;1508;48.744;9.110;2022-07-22T12:35:09;9.43;;;7.50;;
2996;SDS011;1508;48.744;9.110;2022-07-22T12:37:59;9.00;;;6.75;;
2996;SDS011;1508;48.744;9.110;2022-07-22T12:40:52;7.70;;;7.00;;
2996;SDS011;1508;48.744;9.110;2022-07-22T12:43:38;8.18;;;7.15;;
2996;SDS011;1508;48.744;9.110;2022-07-22T12:46:24;8.68;;;7.05;;
2996;SDS011;1508;48.744;9.110;2022-07-22T12:49:10;8.18;;;7.38;;
2996;SDS011;1508;48.744;9.110;2022-07-22T12:54:55;8.07;;;7.30;;
2996;SDS011;1508;48.744;9.110;2022-07-22T12:57:41;8.18;;;7.40;;
2996;SDS011;1508;48.744;9.110;2022-07-22T13:00:32;8.07;;;7.10;;
2996;SDS011;1508;48.744;9.110;2022-07-22T13:03:23;8.10;;;7.30;;
2996;SDS011;1508;48.744;9.110;2022-07-22T13:06:09;8.10;;;7.30;;
2996;SDS011;1508;48.744;9.110;2022-07-22T13:08:55;7.70;;;6.78;;
2996;SDS011;1508;48.744;9.110;2022-07-22T13:11:41;11.18;;;7.43;;
2996;SDS011;1508;48.744;9.110;2022-07-22T13:14:27;8.48;;;6.65;;
2996;SDS011;1508;48.744;9.110;2022-07-22T13:17:13;7.70;;;7.00;;
2996;SDS011;1508;48.744;9.110;2022-07-22T13:19:58;8.40;;;7.00;;
2996;SDS011;1508;48.744;9.110;2022-07-22T13:22:45;7.25;;;6.55;;
2996;SDS011;1508;48.744;9.110;2022-07-22T13:25:31;9.02;;;7.30;;
2996;SDS011;1508;48.744;9.110;2022-07-22T13:28:17;8.15;;;7.35;;
2996;SDS011;1508;48.744;9.110;2022-07-22T13:31:03;10.57;;;7.45;;
2996;SDS011;1508;48.744;9.110;2022-07-22T13:33:49;7.93;;;7.13;;
2996;SDS011;1508;48.744;9.110;2022-07-22T13:36:34;8.05;;;6.80;;
2996;SDS011;1508;48.744;9.110;2022-07-22T13:39:21;8.30;;;7.40;;
2996;SDS011;1508;48.744;9.110;2022-07-22T13:42:07;7.70;;;6.90;;
2996;SDS011;1508;48.744;9.110;2022-07-22T13:44:53;7.10;;;6.50;;
2996;SDS011;1508;48.744;9.110;2022-07-22T13:47:40;8.50;;;7.20;;
2996;SDS011;1508;48.744;9.110;2022-07-22T13:50:26;8.90;;;6.70;;
2996;SDS011;1508;48.744;9.110;2022-07-22T13:53:12;8.52;;;6.88;;
2996;SDS011;1508;48.744;9.110;2022-07-22T13:55:58;6.97;;;6.38;;
2996;SDS011;1508;48.744;9.110;2022-07-22T13:58:44;7.88;;;7.13;;
2996;SDS011;1508;48.744;9.110;2022-07-22T14:01:30;7.90;;;7.20;;
2996;SDS011;1508;48.744;9.110;2022-07-22T14:04:16;7.20;;;6.50;;
2996;SDS011;1508;48.744;9.110;2022-07-22T14:07:02;7.55;;;6.85;;
2996;SDS011;1508;48.744;9.110;2022-07-22T14:09:48;6.97;;;6.30;;
2996;SDS011;1508;48.744;9.110;2022-07-22T14:12:34;7.30;;;6.60;;
2996;SDS011;1508;48.744;9.110;2022-07-22T14:15:20;8.47;;;6.90;;
2996;SDS011;1508;48.744;9.110;2022-07-22T14:18:06;7.78;;;6.97;;
2996;SDS011;1508;48.744;9.110;2022-07-22T14:20:51;7.30;;;6.60;;
2996;SDS011;1508;48.744;9.110;2022-07-22T14:23:37;7.30;;;6.60;;
2996;SDS011;1508;48.744;9.110;2022-07-22T14:26:23;6.95;;;6.35;;
2996;SDS011;1508;48.744;9.110;2022-07-22T14:29:09;7.60;;;6.80;;
2996;SDS011;1508;48.744;9.110;2022-07-22T14:31:55;7.47;;;6.78;;
2996;SDS011;1508;48.744;9.110;2022-07-22T14:34:41;6.82;;;6.22;;
2996;SDS011;1508;48.744;9.110;2022-07-22T14:37:27;7.70;;;7.00;;
2996;SDS011;1508;48.744;9.110;2022-07-22T14:40:12;6.63;;;6.10;;
2996;SDS011;1508;48.744;9.110;2022-07-22T14:42:58;7.45;;;6.75;;
2996;SDS011;1508;48.744;9.110;2022-07-22T14:45:44;7.60;;;6.90;;
2996;SDS011;1508;48.744;9.110;2022-07-22T14:48:30;7.10;;;6.40;;
2996;SDS011;1508;48.744;9.110;2022-07-22T14:51:16;7.03;;;6.43;;
2996;SDS011;1508;48.744;9.110;2022-07-22T14:54:02;7.82;;;7.03;;
2996;SDS011;1508;48.744;9.110;2022-07-22T14:56:48;7.90;;;6.80;;
2996;SDS011;1508;48.744;9.110;2022-07-22T14:59:33;8.35;;;7.20;;
2996;SDS011;1508;48.744;9.110;2022-07-22T15:02:19;8.13;;;6.40;;
2996;SDS011;1508;48.744;9.110;2022-07-22T15:05:05;7.55;;;6.85;;
2996;SDS011;1508;48.744;9.110;2022-07-22T15:07:51;7.15;;;6.50;;
2996;SDS011;1508;48.744;9.110;2022-07-22T15:10:37;8.00;;;6.80;;
2996;SDS011;1508;48.744;9.110;2022-07-22T15:13:23;7.20;;;6.50;;
2996;SDS011;1508;48.744;9.110;2022-07-22T15:16:09;7.60;;;6.80;;
2996;SDS011;1508;48.744;9.110;2022-07-22T15:18:55;7.50;;;6.90;;
2996;SDS011;1508;48.744;9.110;2022-07-22T15:21:41;7.87;;;7.07;;
2996;SDS011;1508;48.744;9.110;2022-07-22T15:24:27;7.57;;;6.97;;
2996;SDS011;1508;48.744;9.110;2022-07-22T15:27:13;8.10;;;7.38;;
2996;SDS011;1508;48.744;9.110;2022-07-22T15:29:58;7.30;;;6.70;;
2996;SDS011;1508;48.744;9.110;2022-07-22T15:32:44;7.30;;;6.70;;
2996;SDS011;1508;48.744;9.110;2022-07-22T15:35:30;8.73;;;6.70;;
2996;SDS011;1508;48.744;9.110;2022-07-22T15:38:16;7.87;;;6.60;;
2996;SDS011;1508;48.744;9.110;2022-07-22T15:41:03;8.10;;;6.75;;
2996;SDS011;1508;48.744;9.110;2022-07-22T15:43:49;6.90;;;6.20;;
2996;SDS011;1508;48.744;9.110;2022-07-22T15:46:35;7.27;;;6.57;;
2996;SDS011;1508;48.744;9.110;2022-07-22T15:49:21;7.72;;;6.93;;
2996;SDS011;1508;48.744;9.110;2022-07-22T15:52:07;7.47;;;6.78;;
2996;SDS011;1508;48.744;9.110;2022-07-22T15:54:53;7.50;;;6.53;;
2996;SDS011;1508;48.744;9.110;2022-07-22T15:57:39;7.67;;;6.90;;
2996;SDS011;1508;48.744;9.110;2022-07-22T16:00:25;7.15;;;6.45;;
2996;SDS011;1508;48.744;9.110;2022-07-22T16:03:10;7.60;;;6.90;;
2996;SDS011;1508;48.744;9.110;2022-07-22T16:05:56;8.10;;;7.30;;
2996;SDS011;1508;48.744;9.110;2022-07-22T16:08:42;7.10;;;6.35;;
2996;SDS011;1508;48.744;9.110;2022-07-22T16:11:28;7.00;;;6.30;;
2996;SDS011;1508;48.744;9.110;2022-07-22T16:14:14;8.00;;;7.20;;
2996;SDS011;1508;48.744;9.110;2022-07-22T16:17:00;7.10;;;6.40;;
2996;SDS011;1508;48.744;9.110;2022-07-22T16:19:46;7.60;;;6.90;;
2996;SDS011;1508;48.744;9.110;2022-07-22T16:22:31;7.60;;;6.90;;
2996;SDS011;1508;48.744;9.110;2022-07-22T16:25:17;8.00;;;7.20;;
2996;SDS011;1508;48.744;9.110;2022-07-22T16:28:03;7.40;;;6.70;;
2996;SDS011;1508;48.744;9.110;2022-07-22T16:30:49;8.17;;;6.70;;
2996;SDS011;1508;48.744;9.110;2022-07-22T16:33:35;7.43;;;6.72;;
2996;SDS011;1508;48.744;9.110;2022-07-22T16:36:21;8.35;;;7.07;;
2996;SDS011;1508;48.744;9.110;2022-07-22T16:39:08;7.63;;;6.82;;
2996;SDS011;1508;48.744;9.110;2022-07-22T16:41:54;7.45;;;6.75;;
2996;SDS011;1508;48.744;9.110;2022-07-22T16:44:40;8.75;;;6.57;;
2996;SDS011;1508;48.744;9.110;2022-07-22T16:47:25;7.20;;;6.50;;
2996;SDS011;1508;48.744;9.110;2022-07-22T16:50:11;7.72;;;6.82;;
2996;SDS011;1508;48.744;9.110;2022-07-22T16:52:57;7.68;;;6.70;;
2996;SDS011;1508;48.744;9.110;2022-07-22T16:55:43;7.35;;;6.65;;
2996;SDS011;1508;48.744;9.110;2022-07-22T16:58:29;7.80;;;6.90;;
2996;SDS011;1508;48.744;9.110;2022-07-22T17:01:15;7.45;;;6.70;;
2996;SDS011;1508;48.744;9.110;2022-07-22T17:04:01;7.20;;;6.50;;
2996;SDS011;1508;48.744;9.110;2022-07-22T17:06:47;7.20;;;6.60;;
2996;SDS011;1508;48.744;9.110;2022-07-22T17:09:33;7.68;;;7.00;;
2996;SDS011;1508;48.744;9.110;2022-07-22T17:12:18;8.10;;;6.80;;
2996;SDS011;1508;48.744;9.110;2022-07-22T17:15:04;7.55;;;6.85;;
2996;SDS011;1508;48.744;9.110;2022-07-22T17:17:51;7.20;;;6.50;;